Time;durP1;ratioP1;P1;durP2;ratioP2;P2;SDS_P1;SDS_P2;PMS_P1;PMS_P2;Temp;Humidity;BMP_temperature;BMP_pressure;BME280_temperature;BME280_humidity;BME280_pressure;Samples;Min_cycle;Max_cycle;Signal;HPM_P1;HPM_P2
2022/03/30 00:01:58;;;;;;;;;;;10.50;99.90;;;;;;5272339;28;19911;-78
2022/03/30 00:04:29;;;;;;;;;;;10.40;99.90;;;;;;5272117;28;19964;-78
2022/03/30 00:06:59;;;;;;;;;;;10.40;99.90;;;;;;5272253;28;20310;-78
2022/03/30 00:09:32;;;;;;;;;;;10.60;99.90;;;;;;5272199;28;19927;-77
2022/03/30 00:12:03;;;;;;;;;;;10.50;99.90;;;;;;5272013;28;19904;-78
2022/03/30 00:14:34;;;;;;;;;;;10.70;99.90;;;;;;5270840;28;19910;-78
2022/03/30 00:17:05;;;;;;;;;;;10.50;99.90;;;;;;5272230;28;19904;-77
2022/03/30 00:19:35;;;;;;;;;;;10.60;99.90;;;;;;5272036;28;20252;-77
2022/03/30 00:22:06;;;;;;;;;;;10.60;99.90;;;;;;5270721;28;20006;-77
2022/03/30 00:24:43;;;;;;;;;;;10.90;99.90;;;;;;5271847;28;20063;-77
2022/03/30 00:27:14;;;;;;;;;;;10.70;99.90;;;;;;5271931;28;19908;-83
2022/03/30 00:29:45;;;;;;;;;;;10.60;99.90;;;;;;5271770;28;19911;-82
2022/03/30 00:32:15;;;;;;;;;;;10.70;99.90;;;;;;5272273;28;20348;-77
2022/03/30 00:34:46;;;;;;;;;;;10.50;99.90;;;;;;5271747;28;20002;-77
2022/03/30 00:37:16;;;;;;;;;;;10.60;99.90;;;;;;5271654;28;19911;-76
2022/03/30 00:39:47;;;;;;;;;;;10.50;99.90;;;;;;5271548;28;19919;-76
2022/03/30 00:42:19;;;;;;;;;;;10.60;99.90;;;;;;5270006;28;19939;-77
2022/03/30 00:44:50;;;;;;;;;;;10.50;99.90;;;;;;5270265;28;19904;-77
2022/03/30 00:47:25;;;;;;;;;;;10.50;99.90;;;;;;5270754;28;20310;-77
2022/03/30 00:49:55;;;;;;;;;;;10.40;99.90;;;;;;5270092;28;19912;-77
2022/03/30 00:52:26;;;;;;;;;;;10.50;99.90;;;;;;5271398;28;19977;-78
2022/03/30 00:54:57;;;;;;;;;;;10.30;99.90;;;;;;5269918;28;19904;-77
2022/03/30 00:57:28;;;;;;;;;;;10.30;99.90;;;;;;5271085;28;20359;-78
2022/03/30 00:59:59;;;;;;;;;;;10.40;99.90;;;;;;5269832;28;19912;-78
2022/03/30 01:02:31;;;;;;;;;;;10.50;99.90;;;;;;5271271;28;20298;-78
2022/03/30 01:05:01;;;;;;;;;;;10.40;99.90;;;;;;5271098;28;19910;-77
2022/03/30 01:07:32;;;;;;;;;;;10.40;99.90;;;;;;5269720;28;19904;-78
2022/03/30 01:10:03;;;;;;;;;;;10.20;99.90;;;;;;5271513;28;19958;-77
2022/03/30 01:12:37;;;;;;;;;;;10.10;99.90;;;;;;5269642;28;19951;-78
2022/03/30 01:15:08;;;;;;;;;;;10.00;99.90;;;;;;5271081;28;20264;-78
2022/03/30 01:17:39;;;;;;;;;;;10.30;99.90;;;;;;5271216;28;19950;-78
2022/03/30 01:20:11;;;;;;;;;;;10.20;99.90;;;;;;5271018;28;19912;-78
2022/03/30 01:22:42;;;;;;;;;;;10.00;99.90;;;;;;5271134;28;20366;-79
2022/03/30 01:25:12;;;;;;;;;;;10.20;99.90;;;;;;5271060;28;19908;-79
2022/03/30 01:27:43;;;;;;;;;;;10.20;99.90;;;;;;5270819;28;20313;-80
2022/03/30 01:33:05;;;;;;;;;;;10.20;99.90;;;;;;5271032;28;19911;-78
2022/03/30 01:35:36;;;;;;;;;;;10.30;99.90;;;;;;5269271;28;19991;-79
2022/03/30 01:38:07;;;;;;;;;;;10.20;99.90;;;;;;5269176;28;20006;-78
2022/03/30 01:40:38;;;;;;;;;;;10.20;99.90;;;;;;5270416;28;19912;-77
2022/03/30 01:43:09;;;;;;;;;;;10.30;99.90;;;;;;5270274;28;19911;-78
2022/03/30 01:45:39;;;;;;;;;;;10.00;99.90;;;;;;5269068;28;20338;-78
2022/03/30 01:48:10;;;;;;;;;;;10.20;99.90;;;;;;5270115;28;20401;-78
2022/03/30 01:50:41;;;;;;;;;;;10.10;99.90;;;;;;5270265;28;20318;-77
2022/03/30 01:53:11;;;;;;;;;;;10.30;99.90;;;;;;5268993;28;19927;-77
2022/03/30 01:55:42;;;;;;;;;;;10.30;99.90;;;;;;5268482;28;19923;-77
2022/03/30 01:58:13;;;;;;;;;;;10.20;99.90;;;;;;5268828;28;19915;-77
2022/03/30 02:00:43;;;;;;;;;;;10.10;99.90;;;;;;5270321;28;19912;-77
2022/03/30 02:03:14;;;;;;;;;;;10.30;99.90;;;;;;5268836;28;19904;-77
2022/03/30 02:05:46;;;;;;;;;;;10.40;99.90;;;;;;5268747;28;19911;-77
2022/03/30 02:08:16;;;;;;;;;;;10.40;99.90;;;;;;5269992;28;20382;-76
2022/03/30 02:10:47;;;;;;;;;;;10.40;99.90;;;;;;5269670;28;19951;-76
2022/03/30 02:13:18;;;;;;;;;;;10.30;99.90;;;;;;5269706;28;19908;-76
2022/03/30 02:15:48;;;;;;;;;;;10.20;99.90;;;;;;5269914;28;19972;-76
2022/03/30 02:18:19;;;;;;;;;;;10.40;99.90;;;;;;5268577;28;19904;-78
2022/03/30 02:20:50;;;;;;;;;;;10.30;99.90;;;;;;5269734;28;20826;-78
2022/03/30 02:23:25;;;;;;;;;;;10.30;99.90;;;;;;5269588;28;19907;-78
2022/03/30 02:25:56;;;;;;;;;;;10.00;99.90;;;;;;5268417;28;20371;-78
2022/03/30 02:28:27;;;;;;;;;;;10.20;99.90;;;;;;5269750;28;19909;-78
2022/03/30 02:30:58;;;;;;;;;;;10.00;99.90;;;;;;5269938;28;19904;-78
2022/03/30 02:33:28;;;;;;;;;;;10.00;99.90;;;;;;5269707;28;20011;-78
2022/03/30 02:35:59;;;;;;;;;;;9.90;99.90;;;;;;5268393;28;19957;-77
2022/03/30 02:38:30;;;;;;;;;;;9.90;99.90;;;;;;5268370;28;19911;-77
2022/03/30 02:41:03;;;;;;;;;;;10.00;99.90;;;;;;5269537;28;19957;-77
2022/03/30 02:43:34;;;;;;;;;;;9.90;99.90;;;;;;5269962;28;20306;-77
2022/03/30 02:46:05;;;;;;;;;;;9.90;99.90;;;;;;5269568;28;19904;-85
2022/03/30 02:48:37;;;;;;;;;;;9.90;99.90;;;;;;5269651;28;19904;-77
2022/03/30 02:51:09;;;;;;;;;;;9.70;99.90;;;;;;5269486;28;19958;-77
2022/03/30 02:53:39;;;;;;;;;;;9.80;99.90;;;;;;5269751;28;20262;-78
2022/03/30 02:56:10;;;;;;;;;;;9.70;99.90;;;;;;5269385;28;19916;-77
2022/03/30 02:58:41;;;;;;;;;;;9.40;99.90;;;;;;5269412;28;19991;-78
2022/03/30 03:01:11;;;;;;;;;;;9.80;99.90;;;;;;5269482;28;20271;-76
2022/03/30 03:03:42;;;;;;;;;;;9.60;99.90;;;;;;5269439;28;19904;-76
2022/03/30 03:06:13;;;;;;;;;;;9.60;99.90;;;;;;5269395;28;19905;-76
2022/03/30 03:08:43;;;;;;;;;;;9.50;99.90;;;;;;5269296;28;19991;-76
2022/03/30 03:11:14;;;;;;;;;;;9.50;99.90;;;;;;5271936;28;19911;-77
2022/03/30 03:13:45;;;;;;;;;;;9.50;99.90;;;;;;5273347;28;20003;-77
2022/03/30 03:16:15;;;;;;;;;;;9.50;99.90;;;;;;5273610;28;19904;-80
2022/03/30 03:18:46;;;;;;;;;;;9.10;99.90;;;;;;5273154;28;19908;-76
2022/03/30 03:21:17;;;;;;;;;;;9.20;99.90;;;;;;5273227;28;19904;-76
2022/03/30 03:23:47;;;;;;;;;;;9.20;99.90;;;;;;5273075;28;19930;-76
2022/03/30 03:26:18;;;;;;;;;;;9.20;99.90;;;;;;5273009;28;19908;-76
2022/03/30 03:28:49;;;;;;;;;;;9.20;99.90;;;;;;5272974;28;19915;-77
2022/03/30 03:31:20;;;;;;;;;;;9.20;99.90;;;;;;5273217;28;20263;-76
2022/03/30 03:33:50;;;;;;;;;;;9.30;99.90;;;;;;5272978;28;19904;-76
2022/03/30 03:36:21;;;;;;;;;;;9.30;99.90;;;;;;5273147;28;19926;-76
2022/03/30 03:38:52;;;;;;;;;;;9.20;99.90;;;;;;5272752;28;19958;-75
2022/03/30 03:41:23;;;;;;;;;;;9.10;99.90;;;;;;5272690;28;20322;-76
2022/03/30 03:43:53;;;;;;;;;;;9.10;99.90;;;;;;5273023;28;19951;-76
2022/03/30 03:46:24;;;;;;;;;;;9.10;99.90;;;;;;5272954;28;19903;-76
2022/03/30 03:48:55;;;;;;;;;;;9.00;99.90;;;;;;5272677;28;19904;-76
2022/03/30 03:51:26;;;;;;;;;;;9.00;99.90;;;;;;5272800;28;20355;-77
2022/03/30 03:53:57;;;;;;;;;;;8.80;99.90;;;;;;5271411;28;19904;-77
2022/03/30 03:56:27;;;;;;;;;;;9.00;99.90;;;;;;5272385;28;19911;-78
2022/03/30 03:58:58;;;;;;;;;;;8.90;99.90;;;;;;5272383;28;20001;-77
2022/03/30 04:01:29;;;;;;;;;;;8.80;99.90;;;;;;5271113;28;19923;-77
2022/03/30 04:04:00;;;;;;;;;;;9.10;99.90;;;;;;5272376;28;19999;-77
2022/03/30 04:06:31;;;;;;;;;;;8.90;99.90;;;;;;5272610;28;19904;-76
2022/03/30 04:09:02;;;;;;;;;;;9.00;99.90;;;;;;5272367;28;19911;-77
2022/03/30 04:11:33;;;;;;;;;;;9.10;99.90;;;;;;5272141;28;19939;-77
2022/03/30 04:14:04;;;;;;;;;;;8.80;99.90;;;;;;5272183;28;19907;-77
2022/03/30 04:16:34;;;;;;;;;;;8.90;99.90;;;;;;5272217;28;19965;-76
2022/03/30 04:19:05;;;;;;;;;;;9.20;99.90;;;;;;5271975;28;19915;-77
2022/03/30 04:21:36;;;;;;;;;;;9.40;99.90;;;;;;5270823;28;20002;-78
2022/03/30 04:24:06;;;;;;;;;;;9.40;99.90;;;;;;5272224;28;19961;-79
2022/03/30 04:26:38;;;;;;;;;;;9.10;99.90;;;;;;5271825;28;19914;-78
2022/03/30 04:29:08;;;;;;;;;;;9.30;99.90;;;;;;5271900;28;19955;-78
2022/03/30 04:31:39;;;;;;;;;;;9.30;99.90;;;;;;5270592;28;19939;-77
2022/03/30 04:34:09;;;;;;;;;;;9.30;99.90;;;;;;5271761;28;19911;-78
2022/03/30 04:36:40;;;;;;;;;;;9.50;99.90;;;;;;5271743;28;19908;-77
2022/03/30 04:39:11;;;;;;;;;;;9.60;99.90;;;;;;5271643;28;19908;-78
2022/03/30 04:41:41;;;;;;;;;;;9.70;99.90;;;;;;5271621;28;19911;-78
2022/03/30 04:44:12;;;;;;;;;;;9.80;99.90;;;;;;5271578;28;19958;-78
2022/03/30 04:46:46;;;;;;;;;;;9.80;99.90;;;;;;5271362;28;20002;-78
2022/03/30 04:49:17;;;;;;;;;;;9.80;99.90;;;;;;5271477;28;20298;-78
2022/03/30 04:51:48;;;;;;;;;;;9.80;99.90;;;;;;5271275;28;19911;-78
2022/03/30 04:54:19;;;;;;;;;;;9.90;99.90;;;;;;5271234;28;19948;-77
2022/03/30 04:56:51;;;;;;;;;;;10.00;99.90;;;;;;5270795;28;19920;-78
2022/03/30 04:59:22;;;;;;;;;;;10.10;99.90;;;;;;5271019;28;20056;-78
2022/03/30 05:01:53;;;;;;;;;;;10.20;99.90;;;;;;5269857;28;19991;-81
2022/03/30 05:04:23;;;;;;;;;;;10.30;99.90;;;;;;5269856;28;19904;-78
2022/03/30 05:06:54;;;;;;;;;;;10.40;99.90;;;;;;5271132;28;19904;-83
2022/03/30 05:09:25;;;;;;;;;;;10.40;99.90;;;;;;5271295;28;20267;-78
2022/03/30 05:11:56;;;;;;;;;;;10.60;99.90;;;;;;5271125;28;20057;-87
2022/03/30 05:14:26;;;;;;;;;;;10.70;99.90;;;;;;5269699;28;19933;-81
2022/03/30 05:16:57;;;;;;;;;;;10.70;99.90;;;;;;5297215;27;20267;-79
2022/03/30 05:19:28;;;;;;;;;;;10.90;99.90;;;;;;5302314;27;20366;-78
2022/03/30 05:21:58;;;;;;;;;;;10.90;99.90;;;;;;5313023;27;19908;-80
2022/03/30 05:24:29;;;;;;;;;;;11.00;99.90;;;;;;5308569;27;19952;-79
2022/03/30 05:26:59;;;;;;;;;;;11.20;99.90;;;;;;5295199;27;19943;-78
2022/03/30 05:29:31;;;;;;;;;;;11.20;99.90;;;;;;5291536;28;20008;-81
2022/03/30 05:32:02;;;;;;;;;;;11.30;99.90;;;;;;5297698;27;20685;-82
2022/03/30 05:34:33;;;;;;;;;;;11.50;99.90;;;;;;5302362;27;19904;-81
2022/03/30 05:37:03;;;;;;;;;;;11.60;99.90;;;;;;5291424;27;19904;-80
2022/03/30 05:39:35;;;;;;;;;;;11.80;99.90;;;;;;5292313;27;19965;-81
2022/03/30 05:42:06;;;;;;;;;;;11.90;99.90;;;;;;5289851;28;19915;-84
2022/03/30 05:44:37;;;;;;;;;;;11.90;99.90;;;;;;5308655;27;19908;-80
2022/03/30 05:47:08;;;;;;;;;;;12.10;99.90;;;;;;5311368;27;19910;-79
2022/03/30 05:49:39;;;;;;;;;;;12.20;99.90;;;;;;5312289;27;19904;-78
2022/03/30 05:52:10;;;;;;;;;;;12.40;99.90;;;;;;5311823;27;19956;-78
2022/03/30 05:54:41;;;;;;;;;;;12.50;99.90;;;;;;5310653;27;20420;-79
2022/03/30 05:57:11;;;;;;;;;;;12.70;99.90;;;;;;5311279;27;19923;-78
2022/03/30 05:59:43;;;;;;;;;;;12.80;99.90;;;;;;5312353;27;19915;-84
2022/03/30 06:02:15;;;;;;;;;;;12.70;99.90;;;;;;5310757;27;19957;-80
2022/03/30 06:04:45;;;;;;;;;;;12.80;99.90;;;;;;5312106;27;19903;-81
2022/03/30 06:07:16;;;;;;;;;;;13.10;99.90;;;;;;5310982;27;19929;-82
2022/03/30 06:09:47;;;;;;;;;;;13.10;99.90;;;;;;5312072;27;19943;-80
2022/03/30 06:12:17;;;;;;;;;;;13.20;99.90;;;;;;5310632;27;19910;-79
2022/03/30 06:14:48;;;;;;;;;;;13.60;99.90;;;;;;5312213;27;20415;-78
2022/03/30 06:17:19;;;;;;;;;;;13.80;99.90;;;;;;5312276;27;20303;-78
2022/03/30 06:19:53;;;;;;;;;;;13.80;99.90;;;;;;5312069;27;19908;-80
2022/03/30 06:22:26;;;;;;;;;;;14.10;99.90;;;;;;5310658;27;19908;-76
2022/03/30 06:24:56;;;;;;;;;;;14.20;99.90;;;;;;5311661;27;19919;-77
2022/03/30 06:27:27;;;;;;;;;;;14.20;99.90;;;;;;5311438;27;19914;-77
2022/03/30 06:29:58;;;;;;;;;;;14.50;99.90;;;;;;5311513;27;19994;-76
2022/03/30 06:32:28;;;;;;;;;;;14.30;99.90;;;;;;5311481;27;19911;-85
2022/03/30 06:34:59;;;;;;;;;;;14.30;99.90;;;;;;5311471;27;19909;-79
2022/03/30 06:37:30;;;;;;;;;;;14.40;99.90;;;;;;5311482;27;19910;-80
2022/03/30 06:40:00;;;;;;;;;;;14.40;99.90;;;;;;5311454;27;19912;-79
2022/03/30 06:42:31;;;;;;;;;;;14.60;99.90;;;;;;5311584;27;19903;-79
2022/03/30 06:45:02;;;;;;;;;;;14.90;99.90;;;;;;5312006;27;20252;-78
2022/03/30 06:47:33;;;;;;;;;;;14.90;99.90;;;;;;5315818;27;19910;-80
2022/03/30 06:50:05;;;;;;;;;;;15.00;99.90;;;;;;5304690;27;19917;-80
2022/03/30 06:52:35;;;;;;;;;;;15.10;99.90;;;;;;5294515;28;19904;-78
2022/03/30 06:55:06;;;;;;;;;;;14.80;99.90;;;;;;5294782;27;19911;-83
2022/03/30 06:57:37;;;;;;;;;;;15.20;99.90;;;;;;5294437;28;20385;-80
2022/03/30 07:00:13;;;;;;;;;;;15.40;99.90;;;;;;5294673;28;19998;-80
2022/03/30 07:02:44;;;;;;;;;;;15.20;99.90;;;;;;5295226;28;19961;-89
2022/03/30 07:05:14;;;;;;;;;;;15.50;99.90;;;;;;5294970;28;20309;-79
2022/03/30 07:10:35;;;;;;;;;;;15.70;99.90;;;;;;5315637;27;19911;-83
2022/03/30 07:13:06;;;;;;;;;;;15.90;99.90;;;;;;5315577;27;19904;-85
2022/03/30 07:15:38;;;;;;;;;;;15.80;99.90;;;;;;5314662;27;19907;-83
2022/03/30 07:18:09;;;;;;;;;;;15.80;99.90;;;;;;5315465;27;19948;-77
2022/03/30 07:20:40;;;;;;;;;;;16.30;99.90;;;;;;5314104;27;19915;-77
2022/03/30 07:23:11;;;;;;;;;;;16.00;99.90;;;;;;5314189;27;19910;-79
2022/03/30 07:25:42;;;;;;;;;;;16.00;99.90;;;;;;5314127;27;20354;-80
2022/03/30 07:28:15;;;;;;;;;;;16.00;99.90;;;;;;5315483;27;19911;-79
2022/03/30 07:30:48;;;;;;;;;;;16.20;99.90;;;;;;5315683;27;19910;-79
2022/03/30 07:33:19;;;;;;;;;;;16.30;99.90;;;;;;5315363;27;19910;-81
2022/03/30 07:35:50;;;;;;;;;;;16.10;99.90;;;;;;5315815;27;19994;-79
2022/03/30 07:38:21;;;;;;;;;;;16.10;99.90;;;;;;5315245;27;19904;-78
2022/03/30 07:40:53;;;;;;;;;;;16.80;99.90;;;;;;5315391;27;20280;-80
2022/03/30 07:43:23;;;;;;;;;;;16.70;99.90;;;;;;5315470;27;19992;-78
2022/03/30 07:45:54;;;;;;;;;;;16.60;99.90;;;;;;5315179;27;20367;-78
2022/03/30 07:48:25;;;;;;;;;;;16.70;99.90;;;;;;5315049;27;19910;-79
2022/03/30 07:50:55;;;;;;;;;;;16.70;99.90;;;;;;5294112;27;19914;-78
2022/03/30 07:53:26;;;;;;;;;;;17.10;99.90;;;;;;5293856;28;20002;-80
2022/03/30 07:55:57;;;;;;;;;;;16.90;99.90;;;;;;5280600;28;19923;-79
2022/03/30 07:58:27;;;;;;;;;;;17.10;99.90;;;;;;5303656;27;19912;-79
2022/03/30 08:00:58;;;;;;;;;;;17.10;99.90;;;;;;5311225;27;19922;-82
2022/03/30 08:03:29;;;;;;;;;;;16.70;99.90;;;;;;5314853;27;19952;-87
2022/03/30 08:06:00;;;;;;;;;;;16.40;99.90;;;;;;5314688;27;19928;-79
2022/03/30 08:08:31;;;;;;;;;;;17.40;99.90;;;;;;5314681;27;19904;-79
2022/03/30 08:11:02;;;;;;;;;;;17.10;99.90;;;;;;5314308;27;19910;-82
2022/03/30 08:13:33;;;;;;;;;;;17.40;99.90;;;;;;5314738;27;19903;-80
2022/03/30 08:16:03;;;;;;;;;;;18.00;99.90;;;;;;5314320;27;19956;-78
2022/03/30 08:18:34;;;;;;;;;;;17.60;99.90;;;;;;5298683;27;19907;-83
2022/03/30 08:23:55;;;;;;;;;;;17.20;99.90;;;;;;5271558;28;19970;-81
2022/03/30 08:26:26;;;;;;;;;;;17.40;99.90;;;;;;5271539;28;19914;-82
2022/03/30 08:28:56;;;;;;;;;;;17.60;99.90;;;;;;5271502;28;20363;-83
2022/03/30 08:31:27;;;;;;;;;;;17.80;99.90;;;;;;5270280;28;19995;-82
2022/03/30 08:33:58;;;;;;;;;;;17.60;99.90;;;;;;5270217;28;20359;-81
2022/03/30 08:36:32;;;;;;;;;;;18.00;99.90;;;;;;5287341;28;19907;-80
2022/03/30 08:39:05;;;;;;;;;;;18.10;99.90;;;;;;5271596;28;19911;-79
2022/03/30 08:41:37;;;;;;;;;;;18.10;99.90;;;;;;5280342;27;19949;-85
2022/03/30 08:44:07;;;;;;;;;;;18.30;99.90;;;;;;5292671;28;19957;-77
2022/03/30 08:46:38;;;;;;;;;;;18.40;99.90;;;;;;5292558;28;19911;-78
2022/03/30 08:49:09;;;;;;;;;;;18.00;99.90;;;;;;5292544;28;19949;-79
2022/03/30 08:51:40;;;;;;;;;;;17.80;99.90;;;;;;5307394;27;19903;-82
2022/03/30 08:54:12;;;;;;;;;;;17.80;99.90;;;;;;5313807;27;19949;-80
2022/03/30 08:56:43;;;;;;;;;;;18.10;99.90;;;;;;5313273;27;19915;-84
2022/03/30 08:59:18;;;;;;;;;;;18.00;99.90;;;;;;5312315;27;19964;-81
2022/03/30 09:01:49;;;;;;;;;;;18.00;99.90;;;;;;5313605;27;19903;-80
2022/03/30 09:04:20;;;;;;;;;;;18.20;99.90;;;;;;5313590;27;19925;-81
2022/03/30 09:06:52;;;;;;;;;;;17.80;99.90;;;;;;5308025;27;19907;-81
2022/03/30 09:09:36;;;;;;;;;;;18.50;99.90;;;;;;5291717;28;19943;-80
2022/03/30 09:12:08;;;;;;;;;;;18.80;99.90;;;;;;5307878;27;19907;-84
2022/03/30 09:14:42;;;;;;;;;;;19.00;99.90;;;;;;5313589;27;19946;-79
2022/03/30 09:17:13;;;;;;;;;;;18.80;99.90;;;;;;5313211;27;19949;-82
2022/03/30 09:19:44;;;;;;;;;;;19.00;99.90;;;;;;5313135;27;19907;-82
2022/03/30 09:22:14;;;;;;;;;;;18.50;99.90;;;;;;5312611;27;19946;-83
2022/03/30 09:24:45;;;;;;;;;;;18.40;99.90;;;;;;5313084;27;19956;-83
2022/03/30 09:27:16;;;;;;;;;;;18.70;99.90;;;;;;5313071;27;20385;-83
2022/03/30 09:29:47;;;;;;;;;;;19.20;99.90;;;;;;5312974;27;19907;-80
2022/03/30 09:32:18;;;;;;;;;;;19.40;99.90;;;;;;5311661;27;19904;-79
2022/03/30 09:34:49;;;;;;;;;;;19.00;99.90;;;;;;5313004;27;19903;-79
2022/03/30 09:37:20;;;;;;;;;;;19.20;99.90;;;;;;5312922;27;19946;-80
2022/03/30 09:39:51;;;;;;;;;;;18.90;99.90;;;;;;5312535;27;19949;-78
2022/03/30 09:42:26;;;;;;;;;;;19.60;99.90;;;;;;5312716;27;20374;-82
2022/03/30 09:44:57;;;;;;;;;;;19.70;99.90;;;;;;5311473;27;19950;-79
2022/03/30 09:47:35;;;;;;;;;;;19.50;99.90;;;;;;5311548;27;19950;-81
2022/03/30 09:50:09;;;;;;;;;;;19.50;99.90;;;;;;5311343;27;19910;-82
2022/03/30 09:52:42;;;;;;;;;;;19.20;99.90;;;;;;5311308;27;19994;-81
2022/03/30 09:55:13;;;;;;;;;;;19.50;99.90;;;;;;5312477;27;19907;-80
2022/03/30 09:57:44;;;;;;;;;;;19.50;96.10;;;;;;5294192;27;20007;-83
2022/03/30 10:00:18;;;;;;;;;;;19.30;96.00;;;;;;5288937;28;20422;-80
2022/03/30 10:02:50;;;;;;;;;;;19.30;95.80;;;;;;5290207;28;19903;-80
2022/03/30 10:05:21;;;;;;;;;;;19.10;97.70;;;;;;5308335;27;20044;-81
2022/03/30 10:07:54;;;;;;;;;;;19.30;92.90;;;;;;5310586;27;20001;-80
2022/03/30 10:10:26;;;;;;;;;;;19.50;95.00;;;;;;5311850;27;19911;-81
2022/03/30 10:12:56;;;;;;;;;;;19.90;93.80;;;;;;5310130;27;20373;-78
2022/03/30 10:15:27;;;;;;;;;;;20.10;97.20;;;;;;5292565;27;19907;-79
2022/03/30 10:17:58;;;;;;;;;;;20.00;95.60;;;;;;5278485;28;19904;-78
2022/03/30 10:20:29;;;;;;;;;;;20.20;90.80;;;;;;5279179;28;19954;-83
2022/03/30 10:23:20;;;;;;;;;;;20.00;88.30;;;;;;5268438;28;19904;-79
2022/03/30 10:26:17;;;;;;;;;;;19.70;93.10;;;;;;5267766;28;20321;-80
2022/03/30 10:28:57;;;;;;;;;;;20.00;90.50;;;;;;5277499;27;19911;-82
2022/03/30 10:31:30;;;;;;;;;;;19.70;95.00;;;;;;5268260;28;19915;-78
2022/03/30 10:34:19;;;;;;;;;;;20.20;98.30;;;;;;5268263;28;19904;-78
2022/03/30 10:37:00;;;;;;;;;;;19.70;95.50;;;;;;5269739;28;20334;-82
2022/03/30 10:39:31;;;;;;;;;;;20.00;97.40;;;;;;5268167;28;19957;-81
2022/03/30 10:42:08;;;;;;;;;;;20.00;94.10;;;;;;5269413;28;19998;-82
2022/03/30 10:44:45;;;;;;;;;;;20.00;95.00;;;;;;5304492;28;19904;-78
2022/03/30 10:47:18;;;;;;;;;;;19.60;96.40;;;;;;5297068;27;20256;-79
2022/03/30 10:49:51;;;;;;;;;;;20.50;92.20;;;;;;5269421;28;19906;-79
2022/03/30 10:52:26;;;;;;;;;;;20.40;91.60;;;;;;5277364;28;20006;-77
2022/03/30 10:55:18;;;;;;;;;;;19.60;94.30;;;;;;5302946;28;19915;-79
2022/03/30 10:57:51;;;;;;;;;;;21.20;89.20;;;;;;5292789;28;20007;-85
2022/03/30 11:00:23;;;;;;;;;;;20.90;84.60;;;;;;5290474;28;19918;-78
2022/03/30 11:03:18;;;;;;;;;;;19.50;96.10;;;;;;5290499;28;19998;-82
2022/03/30 11:05:59;;;;;;;;;;;20.60;99.90;;;;;;5283828;28;20282;-79
2022/03/30 11:08:51;;;;;;;;;;;20.60;93.10;;;;;;5290452;28;20249;-78
2022/03/30 11:11:25;;;;;;;;;;;20.40;93.50;;;;;;5279252;28;19918;-78
2022/03/30 11:14:14;;;;;;;;;;;20.30;89.80;;;;;;5289178;28;20329;-81
2022/03/30 11:16:49;;;;;;;;;;;20.20;92.50;;;;;;5288994;28;19956;-81
2022/03/30 11:19:22;;;;;;;;;;;20.80;90.20;;;;;;5290373;28;20002;-79
2022/03/30 11:21:54;;;;;;;;;;;19.90;91.40;;;;;;5288908;28;19907;-78
2022/03/30 11:24:25;;;;;;;;;;;20.80;90.80;;;;;;5290336;28;19939;-78
2022/03/30 11:26:55;;;;;;;;;;;20.50;89.20;;;;;;5290083;28;20330;-81
2022/03/30 11:29:41;;;;;;;;;;;21.30;86.60;;;;;;5290268;28;19911;-81
2022/03/30 11:32:37;;;;;;;;;;;21.00;88.40;;;;;;5292684;28;19903;-79
2022/03/30 11:35:12;;;;;;;;;;;20.50;89.60;;;;;;5291036;28;19906;-79
2022/03/30 11:37:44;;;;;;;;;;;20.60;90.20;;;;;;5293942;28;19908;-79
2022/03/30 11:40:15;;;;;;;;;;;20.60;96.80;;;;;;5293841;28;19912;-82
2022/03/30 11:42:47;;;;;;;;;;;20.80;89.40;;;;;;5293788;28;19904;-78
2022/03/30 11:45:20;;;;;;;;;;;20.70;87.20;;;;;;5293891;28;19911;-79
2022/03/30 11:47:53;;;;;;;;;;;21.30;90.30;;;;;;5293837;28;19903;-79
2022/03/30 11:50:28;;;;;;;;;;;20.90;89.40;;;;;;5293914;28;19997;-77
2022/03/30 11:53:00;;;;;;;;;;;20.60;87.40;;;;;;5293984;28;19904;-77
2022/03/30 11:55:32;;;;;;;;;;;20.90;87.40;;;;;;5293425;27;19911;-81
2022/03/30 11:58:03;;;;;;;;;;;20.70;88.00;;;;;;5293742;28;20329;-80
2022/03/30 12:00:34;;;;;;;;;;;20.60;89.20;;;;;;5293482;28;19911;-78
2022/03/30 12:03:04;;;;;;;;;;;20.70;89.20;;;;;;5293460;27;19904;-80
2022/03/30 12:05:35;;;;;;;;;;;20.70;84.50;;;;;;5292232;28;19949;-80
2022/03/30 12:08:06;;;;;;;;;;;20.60;87.90;;;;;;5293459;28;19927;-78
2022/03/30 12:10:36;;;;;;;;;;;21.00;88.40;;;;;;5293121;28;19911;-82
2022/03/30 12:13:09;;;;;;;;;;;21.50;85.30;;;;;;5291820;28;20259;-80
2022/03/30 12:15:39;;;;;;;;;;;20.70;87.00;;;;;;5293104;28;19904;-81
2022/03/30 12:18:10;;;;;;;;;;;20.90;86.60;;;;;;5293083;28;19911;-80
2022/03/30 12:20:41;;;;;;;;;;;21.40;84.10;;;;;;5293103;28;20378;-79
2022/03/30 12:23:12;;;;;;;;;;;21.40;82.90;;;;;;5293430;28;19956;-81
2022/03/30 12:25:44;;;;;;;;;;;21.10;86.40;;;;;;5293281;28;19907;-78
2022/03/30 12:28:26;;;;;;;;;;;20.60;87.20;;;;;;5292990;28;19907;-78
2022/03/30 12:30:57;;;;;;;;;;;21.50;89.80;;;;;;5291662;28;20367;-79
2022/03/30 12:33:28;;;;;;;;;;;21.50;86.20;;;;;;5293153;28;19910;-79
2022/03/30 12:35:58;;;;;;;;;;;21.40;81.20;;;;;;5292945;28;19910;-78
2022/03/30 12:38:33;;;;;;;;;;;21.10;86.40;;;;;;5292835;28;20355;-78
2022/03/30 12:41:04;;;;;;;;;;;21.00;85.40;;;;;;5292535;28;19919;-79
2022/03/30 12:43:35;;;;;;;;;;;20.90;85.70;;;;;;5291729;28;19904;-82
2022/03/30 12:46:14;;;;;;;;;;;21.20;86.30;;;;;;5292610;28;19911;-79
2022/03/30 12:48:46;;;;;;;;;;;21.20;87.80;;;;;;5292999;28;19911;-78
2022/03/30 12:51:18;;;;;;;;;;;20.90;89.50;;;;;;5292543;28;20287;-82
2022/03/30 12:53:49;;;;;;;;;;;21.40;84.50;;;;;;5292451;28;20320;-79
2022/03/30 12:56:20;;;;;;;;;;;21.30;80.80;;;;;;5292186;28;19911;-79
2022/03/30 12:58:58;;;;;;;;;;;21.60;79.70;;;;;;5292421;28;20434;-78
2022/03/30 13:01:37;;;;;;;;;;;21.60;81.00;;;;;;5292369;28;20328;-78
2022/03/30 13:04:22;;;;;;;;;;;21.20;82.20;;;;;;5291042;28;19955;-78
2022/03/30 13:07:06;;;;;;;;;;;21.30;84.00;;;;;;5292218;28;19911;-78
2022/03/30 13:09:37;;;;;;;;;;;21.20;83.20;;;;;;5292202;28;19926;-79
2022/03/30 13:12:08;;;;;;;;;;;20.90;84.00;;;;;;5292029;28;19904;-78
2022/03/30 13:14:47;;;;;;;;;;;21.40;82.70;;;;;;5291769;28;19904;-80
2022/03/30 13:17:18;;;;;;;;;;;21.00;85.00;;;;;;5291503;28;19907;-81
2022/03/30 13:19:57;;;;;;;;;;;21.20;81.70;;;;;;5291335;28;20020;-79
2022/03/30 13:22:30;;;;;;;;;;;21.00;79.70;;;;;;5292040;28;19911;-79
2022/03/30 13:25:01;;;;;;;;;;;21.50;79.20;;;;;;5292121;27;19911;-80
2022/03/30 13:27:41;;;;;;;;;;;21.20;79.90;;;;;;5291860;28;19969;-80
2022/03/30 13:30:12;;;;;;;;;;;20.70;82.60;;;;;;5291853;28;20002;-80
2022/03/30 13:32:42;;;;;;;;;;;21.20;80.20;;;;;;5292227;28;20796;-78
2022/03/30 13:35:13;;;;;;;;;;;21.80;78.80;;;;;;5292306;28;19998;-78
2022/03/30 13:37:43;;;;;;;;;;;21.20;78.70;;;;;;5291573;28;20004;-80
2022/03/30 13:40:14;;;;;;;;;;;20.80;81.40;;;;;;5291552;28;19911;-79
2022/03/30 13:42:45;;;;;;;;;;;21.10;80.50;;;;;;5291475;28;19904;-79
2022/03/30 13:45:16;;;;;;;;;;;21.50;77.40;;;;;;5290484;28;19904;-78
2022/03/30 13:47:46;;;;;;;;;;;21.20;79.50;;;;;;5291486;28;19910;-78
2022/03/30 13:50:17;;;;;;;;;;;21.10;79.20;;;;;;5291402;28;19911;-78
2022/03/30 13:52:48;;;;;;;;;;;21.10;78.10;;;;;;5291603;28;19910;-78
2022/03/30 13:55:21;;;;;;;;;;;20.90;80.30;;;;;;5291229;28;19946;-78
2022/03/30 13:57:51;;;;;;;;;;;20.70;78.60;;;;;;5290034;28;19962;-79
2022/03/30 14:00:22;;;;;;;;;;;21.00;76.50;;;;;;5291496;28;20343;-78
2022/03/30 14:02:56;;;;;;;;;;;21.10;77.80;;;;;;5291499;28;19998;-78
2022/03/30 14:05:27;;;;;;;;;;;20.60;79.20;;;;;;5290805;28;20305;-78
2022/03/30 14:07:58;;;;;;;;;;;20.70;82.50;;;;;;5291201;28;19908;-78
2022/03/30 14:10:30;;;;;;;;;;;20.60;78.70;;;;;;5291012;28;19911;-83
2022/03/30 14:13:01;;;;;;;;;;;20.80;78.30;;;;;;5291558;28;19949;-79
2022/03/30 14:15:31;;;;;;;;;;;20.90;79.80;;;;;;5290948;28;19904;-78
2022/03/30 14:18:02;;;;;;;;;;;20.40;80.20;;;;;;5291139;28;19994;-78
2022/03/30 14:20:33;;;;;;;;;;;20.50;79.20;;;;;;5289597;28;20373;-78
2022/03/30 14:23:07;;;;;;;;;;;20.30;79.10;;;;;;5290991;28;19904;-79
2022/03/30 14:25:37;;;;;;;;;;;20.50;81.80;;;;;;5289490;28;19911;-79
2022/03/30 14:28:09;;;;;;;;;;;20.30;82.60;;;;;;5290833;28;19915;-79
2022/03/30 14:30:40;;;;;;;;;;;20.10;84.00;;;;;;5290755;28;19982;-78
2022/03/30 14:33:10;;;;;;;;;;;20.00;84.60;;;;;;5289531;28;20002;-82
2022/03/30 14:35:41;;;;;;;;;;;20.10;83.60;;;;;;5290751;28;19904;-82
2022/03/30 14:38:12;;;;;;;;;;;20.10;82.90;;;;;;5290740;28;19908;-78
2022/03/30 14:40:43;;;;;;;;;;;20.30;83.90;;;;;;5290619;28;20271;-78
2022/03/30 14:43:14;;;;;;;;;;;20.20;83.10;;;;;;5290764;28;20270;-78
2022/03/30 14:45:45;;;;;;;;;;;20.50;83.10;;;;;;5290673;28;19994;-78
2022/03/30 14:48:16;;;;;;;;;;;20.10;81.00;;;;;;5290657;28;19907;-78
2022/03/30 14:50:47;;;;;;;;;;;20.30;79.30;;;;;;5290865;28;19908;-78
2022/03/30 14:53:18;;;;;;;;;;;20.60;82.00;;;;;;5290559;28;19908;-79
2022/03/30 14:55:49;;;;;;;;;;;20.20;81.70;;;;;;5288910;28;19960;-78